Time;durP1;ratioP1;P1;durP2;ratioP2;P2;SDS_P1;SDS_P2;PMS_P1;PMS_P2;Temp;Humidity;BMP_temperature;BMP_pressure;BME280_temperature;BME280_humidity;BME280_pressure;Samples;Min_cycle;Max_cycle;Signal;HPM_P1;HPM_P2
2023/05/24 00:01:37;;;;;;;34.28;5.88;;;;;;;;;;5054218;28;20051;-78
2023/05/24 00:04:03;;;;;;;27.02;5.30;;;;;;;;;;5058661;28;20182;-78
2023/05/24 00:06:33;;;;;;;38.13;6.47;;;;;;;;;;5059723;28;20047;-78
2023/05/24 00:09:00;;;;;;;26.58;6.05;;;;;;;;;;5057316;28;20071;-78
2023/05/24 00:11:26;;;;;;;23.85;5.30;;;;;;;;;;5056248;28;20384;-77
2023/05/24 00:13:53;;;;;;;27.45;4.80;;;;;;;;;;5056463;28;20395;-78
2023/05/24 00:16:19;;;;;;;31.52;6.47;;;;;;;;;;5056854;28;20055;-78
2023/05/24 00:18:45;;;;;;;28.60;5.45;;;;;;;;;;5054706;28;20126;-78
2023/05/24 00:21:12;;;;;;;24.90;5.90;;;;;;;;;;5055899;28;20052;-78
2023/05/24 00:23:38;;;;;;;37.13;6.15;;;;;;;;;;5057449;28;20600;-78
2023/05/24 00:26:05;;;;;;;21.38;4.25;;;;;;;;;;5056729;28;20068;-78
2023/05/24 00:28:31;;;;;;;27.40;5.22;;;;;;;;;;5056339;28;20130;-77
2023/05/24 00:30:57;;;;;;;24.92;5.75;;;;;;;;;;5057488;28;20052;-78
2023/05/24 00:33:24;;;;;;;25.42;4.75;;;;;;;;;;5021815;28;20048;-78
2023/05/24 00:35:55;;;;;;;24.15;4.75;;;;;;;;;;5054839;28;20047;-78
2023/05/24 00:38:21;;;;;;;22.27;4.75;;;;;;;;;;5057932;28;20086;-78
2023/05/24 00:40:48;;;;;;;24.67;4.93;;;;;;;;;;5054353;28;20051;-78
2023/05/24 00:43:14;;;;;;;18.70;4.60;;;;;;;;;;5054721;28;20044;-78
2023/05/24 00:45:40;;;;;;;22.63;4.60;;;;;;;;;;5038827;28;20040;-78
2023/05/24 00:48:07;;;;;;;25.27;5.68;;;;;;;;;;5053817;28;20138;-78
2023/05/24 00:50:33;;;;;;;16.25;4.47;;;;;;;;;;5052712;28;20044;-78
2023/05/24 00:53:01;;;;;;;22.15;5.10;;;;;;;;;;5053878;28;22410;-78
2023/05/24 00:55:28;;;;;;;25.15;4.53;;;;;;;;;;5055539;28;20033;-78
2023/05/24 00:57:56;;;;;;;36.45;5.05;;;;;;;;;;5055428;28;20036;-78
2023/05/24 01:00:23;;;;;;;18.42;4.53;;;;;;;;;;5056506;28;20599;-77
2023/05/24 01:02:49;;;;;;;26.00;5.57;;;;;;;;;;5055274;28;20197;-78
2023/05/24 01:05:16;;;;;;;28.25;5.63;;;;;;;;;;5058243;28;20044;-78
2023/05/24 01:07:45;;;;;;;26.15;4.60;;;;;;;;;;5039451;28;20045;-78
2023/05/24 01:10:11;;;;;;;23.88;5.22;;;;;;;;;;5039431;28;20048;-78
2023/05/24 01:12:53;;;;;;;25.45;5.07;;;;;;;;;;5059390;28;20040;-78
2023/05/24 01:15:19;;;;;;;25.55;4.90;;;;;;;;;;5038205;28;20048;-78
2023/05/24 01:18:00;;;;;;;20.10;4.32;;;;;;;;;;5059397;28;20048;-77
2023/05/24 01:20:29;;;;;;;35.60;5.00;;;;;;;;;;5072146;28;21610;-78
2023/05/24 01:22:58;;;;;;;24.23;4.47;;;;;;;;;;5055544;28;20974;-77
2023/05/24 01:25:40;;;;;;;27.80;5.63;;;;;;;;;;5057976;28;20047;-77
2023/05/24 01:28:07;;;;;;;24.77;4.60;;;;;;;;;;5059162;28;20051;-78
2023/05/24 01:30:35;;;;;;;20.63;4.22;;;;;;;;;;5067657;28;20040;-77
2023/05/24 01:33:01;;;;;;;30.35;5.25;;;;;;;;;;5061972;28;20043;-78
2023/05/24 01:35:27;;;;;;;25.45;4.57;;;;;;;;;;5062701;28;20048;-78
2023/05/24 01:37:53;;;;;;;20.88;4.78;;;;;;;;;;5059418;28;20043;-78
2023/05/24 01:40:19;;;;;;;32.05;6.03;;;;;;;;;;5067384;28;20106;-78
2023/05/24 01:42:48;;;;;;;20.23;4.65;;;;;;;;;;5066105;28;20041;-78
2023/05/24 01:45:33;;;;;;;23.33;5.00;;;;;;;;;;5068582;28;20090;-78
2023/05/24 01:47:59;;;;;;;17.25;4.10;;;;;;;;;;5061734;28;22053;-78
2023/05/24 01:50:27;;;;;;;26.52;5.05;;;;;;;;;;5052512;28;20131;-77
2023/05/24 01:52:54;;;;;;;18.30;4.85;;;;;;;;;;5053288;28;20043;-78
2023/05/24 01:55:21;;;;;;;22.60;4.15;;;;;;;;;;5034253;28;20040;-77
2023/05/24 01:57:48;;;;;;;23.70;4.20;;;;;;;;;;5051198;28;20044;-77
2023/05/24 02:00:15;;;;;;;24.88;4.95;;;;;;;;;;5054132;28;20052;-78
2023/05/24 02:02:41;;;;;;;28.52;4.63;;;;;;;;;;5034926;28;20090;-78
2023/05/24 02:05:09;;;;;;;18.33;4.05;;;;;;;;;;5032282;28;20075;-77
2023/05/24 02:07:35;;;;;;;28.23;5.15;;;;;;;;;;5052544;28;20071;-77
2023/05/24 02:10:01;;;;;;;20.77;4.75;;;;;;;;;;5054566;28;20048;-78
2023/05/24 02:12:27;;;;;;;22.38;4.13;;;;;;;;;;5053591;28;20518;-78
2023/05/24 02:14:53;;;;;;;24.95;4.72;;;;;;;;;;5069831;28;20040;-77
2023/05/24 02:17:19;;;;;;;18.52;5.13;;;;;;;;;;5055663;28;20043;-78
2023/05/24 02:19:45;;;;;;;25.50;4.82;;;;;;;;;;5054532;28;20036;-77
2023/05/24 02:22:12;;;;;;;20.98;4.80;;;;;;;;;;5054711;28;20044;-77
2023/05/24 02:24:39;;;;;;;22.63;4.70;;;;;;;;;;5053027;28;20056;-78
2023/05/24 02:27:05;;;;;;;18.23;4.07;;;;;;;;;;5071416;28;20101;-78
2023/05/24 02:29:31;;;;;;;22.35;5.07;;;;;;;;;;5053691;28;20093;-77
2023/05/24 02:31:57;;;;;;;26.60;4.80;;;;;;;;;;5070989;28;21370;-78
2023/05/24 02:34:24;;;;;;;26.05;4.72;;;;;;;;;;5058086;28;20089;-78
2023/05/24 02:36:50;;;;;;;25.90;4.70;;;;;;;;;;5072665;28;20043;-77
2023/05/24 02:39:16;;;;;;;22.00;3.97;;;;;;;;;;5060078;28;20044;-79
2023/05/24 02:41:42;;;;;;;19.90;4.53;;;;;;;;;;5060399;28;20044;-76
2023/05/24 02:44:08;;;;;;;24.48;4.65;;;;;;;;;;5055489;28;20050;-77
2023/05/24 02:46:35;;;;;;;22.90;4.25;;;;;;;;;;5053605;28;22263;-78
2023/05/24 02:49:01;;;;;;;19.10;4.20;;;;;;;;;;5050332;28;20055;-77
2023/05/24 02:51:27;;;;;;;24.38;4.00;;;;;;;;;;5051785;28;20414;-77
2023/05/24 02:53:53;;;;;;;22.77;4.50;;;;;;;;;;5051942;28;20059;-77
2023/05/24 02:56:20;;;;;;;24.85;4.57;;;;;;;;;;5050409;28;20048;-77
2023/05/24 02:58:46;;;;;;;18.98;4.10;;;;;;;;;;5052176;28;20055;-77
2023/05/24 03:01:13;;;;;;;23.50;4.55;;;;;;;;;;5035249;28;20071;-77
2023/05/24 03:03:39;;;;;;;21.80;4.85;;;;;;;;;;5066108;28;20048;-76
2023/05/24 03:06:08;;;;;;;16.52;4.00;;;;;;;;;;5049656;28;20469;-78
2023/05/24 03:08:36;;;;;;;17.23;4.55;;;;;;;;;;5051860;28;20151;-77
2023/05/24 03:11:02;;;;;;;24.17;4.57;;;;;;;;;;5050448;28;20055;-77
2023/05/24 03:13:28;;;;;;;21.05;4.30;;;;;;;;;;5051590;28;20048;-77
2023/05/24 03:15:54;;;;;;;24.55;4.82;;;;;;;;;;5053772;28;20059;-77
2023/05/24 03:18:20;;;;;;;29.95;5.53;;;;;;;;;;5035447;28;20040;-77
2023/05/24 03:20:47;;;;;;;24.40;4.28;;;;;;;;;;5054691;28;20178;-77
2023/05/24 03:23:13;;;;;;;26.00;3.97;;;;;;;;;;5055290;28;20048;-77
2023/05/24 03:25:40;;;;;;;26.20;4.63;;;;;;;;;;5055178;28;20044;-77
2023/05/24 03:28:06;;;;;;;25.42;4.25;;;;;;;;;;5054295;28;20170;-77
2023/05/24 03:30:32;;;;;;;26.98;5.35;;;;;;;;;;5053758;28;20045;-77
2023/05/24 03:32:59;;;;;;;23.23;5.55;;;;;;;;;;5052893;28;20479;-78
2023/05/24 03:35:25;;;;;;;24.30;4.63;;;;;;;;;;5058809;28;20044;-76
2023/05/24 03:37:52;;;;;;;26.95;5.00;;;;;;;;;;5057173;28;20072;-77
2023/05/24 03:40:18;;;;;;;19.38;4.65;;;;;;;;;;5055505;28;20036;-77
2023/05/24 03:42:44;;;;;;;30.98;5.05;;;;;;;;;;5053869;28;20054;-77
2023/05/24 03:45:10;;;;;;;22.55;4.50;;;;;;;;;;5055440;28;20131;-77
2023/05/24 03:47:36;;;;;;;23.85;4.65;;;;;;;;;;5053278;28;20524;-78
2023/05/24 03:50:03;;;;;;;22.15;4.40;;;;;;;;;;5053295;28;20051;-76
2023/05/24 03:52:29;;;;;;;24.48;5.03;;;;;;;;;;5054369;28;20044;-77
2023/05/24 03:54:55;;;;;;;25.67;5.28;;;;;;;;;;5052085;28;20135;-77
2023/05/24 03:57:21;;;;;;;24.13;4.70;;;;;;;;;;5040322;28;20048;-78
2023/05/24 03:59:47;;;;;;;19.13;4.85;;;;;;;;;;5034328;28;20044;-77
2023/05/24 04:02:13;;;;;;;25.42;4.55;;;;;;;;;;5060388;28;20310;-77
2023/05/24 04:04:40;;;;;;;25.55;4.88;;;;;;;;;;5053641;28;20048;-78
2023/05/24 04:07:06;;;;;;;26.20;4.35;;;;;;;;;;5055969;28;20499;-78
2023/05/24 04:09:32;;;;;;;25.52;5.10;;;;;;;;;;5053623;28;20046;-78
2023/05/24 04:11:58;;;;;;;20.73;4.78;;;;;;;;;;5055559;28;20051;-78
2023/05/24 04:14:24;;;;;;;19.10;4.82;;;;;;;;;;5050466;28;20090;-78
2023/05/24 04:16:52;;;;;;;20.40;5.95;;;;;;;;;;5053730;28;20074;-77
2023/05/24 04:19:18;;;;;;;17.17;3.83;;;;;;;;;;5059333;28;22412;-77
2023/05/24 04:21:44;;;;;;;16.73;4.20;;;;;;;;;;5057879;28;20044;-77
2023/05/24 04:24:10;;;;;;;29.30;5.05;;;;;;;;;;5055391;28;20461;-78
2023/05/24 04:26:37;;;;;;;29.27;5.25;;;;;;;;;;5054509;28;20044;-78
2023/05/24 04:29:03;;;;;;;21.95;5.00;;;;;;;;;;5053302;28;20036;-78
2023/05/24 04:31:32;;;;;;;19.88;5.03;;;;;;;;;;5052926;28;20044;-78
2023/05/24 04:33:58;;;;;;;23.75;4.50;;;;;;;;;;5054015;28;20055;-77
2023/05/24 04:36:25;;;;;;;28.23;5.63;;;;;;;;;;5051171;28;20044;-77
2023/05/24 04:38:52;;;;;;;19.13;4.32;;;;;;;;;;5052929;28;20052;-77
2023/05/24 04:41:21;;;;;;;21.67;4.93;;;;;;;;;;5055131;28;20059;-77
2023/05/24 04:43:47;;;;;;;21.98;4.25;;;;;;;;;;5050222;28;20063;-77
2023/05/24 04:46:13;;;;;;;21.45;4.50;;;;;;;;;;5048738;28;20135;-77
2023/05/24 04:48:39;;;;;;;23.00;4.40;;;;;;;;;;5053502;28;20066;-77
2023/05/24 04:51:05;;;;;;;16.40;4.30;;;;;;;;;;5053657;28;20047;-78
2023/05/24 04:53:32;;;;;;;21.05;4.47;;;;;;;;;;5053534;28;20545;-78
2023/05/24 04:55:58;;;;;;;15.30;4.20;;;;;;;;;;5032239;28;20050;-78
2023/05/24 04:58:24;;;;;;;19.65;4.47;;;;;;;;;;5054075;28;20177;-78
2023/05/24 05:00:50;;;;;;;30.48;5.35;;;;;;;;;;5050488;28;20051;-78
2023/05/24 05:03:16;;;;;;;25.55;4.25;;;;;;;;;;5054440;28;20135;-78
2023/05/24 05:05:43;;;;;;;25.00;5.78;;;;;;;;;;5040289;28;20044;-78
2023/05/24 05:08:09;;;;;;;18.80;4.47;;;;;;;;;;5056015;28;20075;-77
2023/05/24 05:10:35;;;;;;;25.23;4.80;;;;;;;;;;5056435;28;21161;-78
2023/05/24 05:13:01;;;;;;;25.73;4.60;;;;;;;;;;5058274;28;20374;-78
2023/05/24 05:15:28;;;;;;;19.10;3.92;;;;;;;;;;5059017;28;20491;-78
2023/05/24 05:17:54;;;;;;;18.67;5.30;;;;;;;;;;5038893;28;20127;-78
2023/05/24 05:20:20;;;;;;;24.77;4.93;;;;;;;;;;5033123;28;20129;-78
2023/05/24 05:22:46;;;;;;;29.05;4.90;;;;;;;;;;5052640;28;20139;-78
2023/05/24 05:25:12;;;;;;;23.63;4.38;;;;;;;;;;5042498;28;20040;-78
2023/05/24 05:27:39;;;;;;;21.58;4.45;;;;;;;;;;5066477;28;20040;-77
2023/05/24 05:30:05;;;;;;;18.95;4.45;;;;;;;;;;5048751;28;20532;-77
2023/05/24 05:32:31;;;;;;;21.27;4.88;;;;;;;;;;5054007;28;20171;-78
2023/05/24 05:34:57;;;;;;;27.08;5.00;;;;;;;;;;5052373;28;20071;-78
2023/05/24 05:37:24;;;;;;;25.45;5.13;;;;;;;;;;5052456;28;20046;-78
2023/05/24 05:39:50;;;;;;;24.35;4.95;;;;;;;;;;5051661;28;20791;-77
2023/05/24 05:42:16;;;;;;;23.40;4.60;;;;;;;;;;5056285;28;20397;-77
2023/05/24 05:44:42;;;;;;;16.50;3.97;;;;;;;;;;5052117;28;21248;-78
2023/05/24 05:47:08;;;;;;;23.83;4.63;;;;;;;;;;5052550;28;20048;-78
2023/05/24 05:49:35;;;;;;;28.20;5.03;;;;;;;;;;5050595;28;21771;-78
2023/05/24 05:52:05;;;;;;;20.33;4.22;;;;;;;;;;5033561;28;20035;-77
2023/05/24 05:54:31;;;;;;;20.38;4.55;;;;;;;;;;5052186;28;20044;-78
2023/05/24 05:56:57;;;;;;;24.95;4.70;;;;;;;;;;5051459;28;20078;-78
2023/05/24 05:59:23;;;;;;;19.70;4.63;;;;;;;;;;5037285;28;20044;-79
2023/05/24 06:01:50;;;;;;;21.27;4.63;;;;;;;;;;5056502;28;20041;-78
2023/05/24 06:04:16;;;;;;;21.05;4.47;;;;;;;;;;5054644;28;20158;-79
2023/05/24 06:06:48;;;;;;;19.38;4.55;;;;;;;;;;5029070;28;20124;-78
2023/05/24 06:09:15;;;;;;;27.55;5.13;;;;;;;;;;5053946;28;20450;-79
2023/05/24 06:11:43;;;;;;;24.85;5.15;;;;;;;;;;5055771;28;20099;-79
2023/05/24 06:14:11;;;;;;;17.02;4.10;;;;;;;;;;5054861;28;20175;-79
2023/05/24 06:16:40;;;;;;;22.65;4.45;;;;;;;;;;5070432;28;20047;-80
2023/05/24 06:19:07;;;;;;;21.38;5.10;;;;;;;;;;5055004;28;20047;-79
2023/05/24 06:21:36;;;;;;;23.88;5.30;;;;;;;;;;5071211;28;20044;-80
2023/05/24 06:24:03;;;;;;;22.67;4.78;;;;;;;;;;5048402;28;20129;-78
2023/05/24 06:26:29;;;;;;;16.17;3.97;;;;;;;;;;5078881;28;20043;-78
2023/05/24 06:28:55;;;;;;;19.05;4.10;;;;;;;;;;5072117;28;20040;-79
2023/05/24 06:31:21;;;;;;;18.20;4.03;;;;;;;;;;5065376;28;21739;-79
2023/05/24 06:33:47;;;;;;;19.38;4.47;;;;;;;;;;5057305;28;20147;-79
2023/05/24 06:36:13;;;;;;;20.88;3.78;;;;;;;;;;5038369;28;20377;-79
2023/05/24 06:38:40;;;;;;;18.13;4.72;;;;;;;;;;5054608;28;20048;-80
2023/05/24 06:41:07;;;;;;;20.60;4.13;;;;;;;;;;5056084;28;22291;-80
2023/05/24 06:43:33;;;;;;;23.25;4.95;;;;;;;;;;5055703;28;20468;-79
2023/05/24 06:45:59;;;;;;;13.88;4.18;;;;;;;;;;5056974;28;20043;-77
2023/05/24 06:48:25;;;;;;;16.60;4.03;;;;;;;;;;5052270;28;21130;-77
2023/05/24 06:50:52;;;;;;;16.92;3.75;;;;;;;;;;5037120;28;20471;-77
2023/05/24 06:53:18;;;;;;;21.75;4.40;;;;;;;;;;5056100;28;20093;-79
2023/05/24 06:55:44;;;;;;;18.63;3.97;;;;;;;;;;5054848;28;20131;-79
2023/05/24 06:58:13;;;;;;;17.65;4.45;;;;;;;;;;5072615;28;20100;-79
2023/05/24 07:00:41;;;;;;;18.55;3.25;;;;;;;;;;5074790;28;20090;-77
2023/05/24 07:03:08;;;;;;;11.88;3.15;;;;;;;;;;5060021;28;20608;-78
2023/05/24 07:05:34;;;;;;;22.33;4.05;;;;;;;;;;5054801;28;20078;-77
2023/05/24 07:08:00;;;;;;;19.35;3.38;;;;;;;;;;5052201;28;20479;-78
2023/05/24 07:10:27;;;;;;;13.60;3.28;;;;;;;;;;5054464;28;20163;-78
2023/05/24 07:12:53;;;;;;;14.98;3.53;;;;;;;;;;5054830;28;20113;-77
2023/05/24 07:15:19;;;;;;;16.65;3.13;;;;;;;;;;5054398;28;20048;-79
2023/05/24 07:17:45;;;;;;;18.67;3.65;;;;;;;;;;5054794;28;20048;-78
2023/05/24 07:20:12;;;;;;;14.20;3.15;;;;;;;;;;5056211;28;20059;-78
2023/05/24 07:22:38;;;;;;;16.55;3.70;;;;;;;;;;5055925;28;20065;-78
2023/05/24 07:25:05;;;;;;;17.38;3.60;;;;;;;;;;5055641;28;20040;-78
2023/05/24 07:27:31;;;;;;;16.98;3.80;;;;;;;;;;5055566;28;20036;-78
2023/05/24 07:30:00;;;;;;;16.83;3.92;;;;;;;;;;5055889;28;20109;-78
2023/05/24 07:32:27;;;;;;;13.63;3.72;;;;;;;;;;5053904;28;20048;-78
2023/05/24 07:34:53;;;;;;;12.85;3.13;;;;;;;;;;5070700;28;20051;-78
2023/05/24 07:37:22;;;;;;;21.98;4.63;;;;;;;;;;5055609;28;20716;-78
2023/05/24 07:39:49;;;;;;;19.35;4.18;;;;;;;;;;5051888;28;20055;-78
2023/05/24 07:42:15;;;;;;;16.08;4.07;;;;;;;;;;5056019;28;20479;-78
2023/05/24 07:44:41;;;;;;;16.27;3.45;;;;;;;;;;5057019;28;20079;-78
2023/05/24 07:47:07;;;;;;;13.43;3.42;;;;;;;;;;5055809;28;20424;-78
2023/05/24 07:49:33;;;;;;;13.73;3.58;;;;;;;;;;5055317;28;20055;-78
2023/05/24 07:51:59;;;;;;;23.70;5.13;;;;;;;;;;5054746;28;20055;-78
2023/05/24 07:54:25;;;;;;;13.80;3.47;;;;;;;;;;5070825;28;20673;-78
2023/05/24 07:56:52;;;;;;;17.42;4.00;;;;;;;;;;5055484;28;20396;-78
2023/05/24 07:59:18;;;;;;;19.23;3.58;;;;;;;;;;5053929;28;20097;-78
2023/05/24 08:01:44;;;;;;;12.93;3.15;;;;;;;;;;5051621;28;20045;-78
2023/05/24 08:04:10;;;;;;;15.43;3.45;;;;;;;;;;5058147;28;20137;-78
2023/05/24 08:06:36;;;;;;;15.25;4.10;;;;;;;;;;5054577;28;20345;-79
2023/05/24 08:09:03;;;;;;;21.48;4.45;;;;;;;;;;5057187;28;20044;-78
2023/05/24 08:11:30;;;;;;;14.77;3.88;;;;;;;;;;5057543;28;20044;-77
2023/05/24 08:13:56;;;;;;;16.23;3.42;;;;;;;;;;5057882;28;20044;-79
2023/05/24 08:16:22;;;;;;;18.20;3.50;;;;;;;;;;5052967;28;20056;-77
2023/05/24 08:18:48;;;;;;;14.45;4.00;;;;;;;;;;5055454;28;20055;-79
2023/05/24 08:21:15;;;;;;;18.67;3.15;;;;;;;;;;5042202;28;20098;-78
2023/05/24 08:23:41;;;;;;;14.55;2.90;;;;;;;;;;5063024;28;20104;-78
2023/05/24 08:26:07;;;;;;;10.30;3.10;;;;;;;;;;5060470;28;20051;-79
2023/05/24 08:28:34;;;;;;;14.73;3.15;;;;;;;;;;5060603;28;20114;-78
2023/05/24 08:31:00;;;;;;;11.63;3.55;;;;;;;;;;5060869;28;20186;-78
2023/05/24 08:33:27;;;;;;;14.25;3.67;;;;;;;;;;5058116;28;20129;-78
2023/05/24 08:35:54;;;;;;;15.70;3.40;;;;;;;;;;5058152;28;20048;-78
2023/05/24 08:38:20;;;;;;;14.07;3.50;;;;;;;;;;5058823;28;20103;-78
2023/05/24 08:40:47;;;;;;;17.98;3.40;;;;;;;;;;5056613;28;20051;-78
2023/05/24 08:43:14;;;;;;;14.77;3.67;;;;;;;;;;5056653;28;20059;-78
2023/05/24 08:45:40;;;;;;;14.93;2.88;;;;;;;;;;5056361;28;20531;-78
2023/05/24 08:48:06;;;;;;;12.05;3.78;;;;;;;;;;5071935;28;20052;-78
2023/05/24 08:50:33;;;;;;;18.00;3.95;;;;;;;;;;5056944;28;20041;-78
2023/05/24 08:53:01;;;;;;;20.23;4.60;;;;;;;;;;5054419;28;20052;-77
2023/05/24 08:55:29;;;;;;;17.20;3.88;;;;;;;;;;5057802;28;20048;-77
2023/05/24 08:57:55;;;;;;;15.50;3.75;;;;;;;;;;5054993;28;20541;-78
2023/05/24 09:00:22;;;;;;;15.32;3.85;;;;;;;;;;5062547;28;20072;-78
2023/05/24 09:02:48;;;;;;;17.33;3.92;;;;;;;;;;5060548;28;20047;-78
2023/05/24 09:05:20;;;;;;;19.40;3.63;;;;;;;;;;5061748;28;20055;-78
2023/05/24 09:07:47;;;;;;;10.30;3.65;;;;;;;;;;5058185;28;20506;-79
2023/05/24 09:10:14;;;;;;;11.40;3.20;;;;;;;;;;5059830;28;20116;-79
2023/05/24 09:12:44;;;;;;;10.80;3.65;;;;;;;;;;5061205;28;20044;-79
2023/05/24 09:15:10;;;;;;;17.70;3.75;;;;;;;;;;5060861;28;20036;-79
2023/05/24 09:17:39;;;;;;;15.73;3.30;;;;;;;;;;5076499;27;20067;-79
2023/05/24 09:20:07;;;;;;;19.98;3.80;;;;;;;;;;5076287;28;20048;-79
2023/05/24 09:22:34;;;;;;;20.13;4.45;;;;;;;;;;5058891;28;20133;-78
2023/05/24 09:25:00;;;;;;;13.38;3.75;;;;;;;;;;5074892;28;20048;-79
2023/05/24 09:27:27;;;;;;;21.83;3.90;;;;;;;;;;5059345;28;20039;-78
2023/05/24 09:29:54;;;;;;;19.23;4.20;;;;;;;;;;5060871;28;20078;-78
2023/05/24 09:32:23;;;;;;;14.10;3.67;;;;;;;;;;5059217;28;20523;-78
2023/05/24 09:34:50;;;;;;;12.88;3.67;;;;;;;;;;5044386;28;20058;-78
2023/05/24 09:37:17;;;;;;;11.32;3.70;;;;;;;;;;5061481;28;20049;-79
2023/05/24 09:39:44;;;;;;;15.60;3.22;;;;;;;;;;5060134;28;20506;-78
2023/05/24 09:42:26;;;;;;;11.95;3.53;;;;;;;;;;5060386;28;20059;-78
2023/05/24 09:45:01;;;;;;;15.93;4.28;;;;;;;;;;5060007;28;20597;-78
2023/05/24 09:47:31;;;;;;;12.88;3.38;;;;;;;;;;5062182;28;20056;-79
2023/05/24 09:49:58;;;;;;;16.92;3.15;;;;;;;;;;5053412;28;20067;-78
2023/05/24 09:52:25;;;;;;;11.68;3.22;;;;;;;;;;5054762;28;20117;-78
2023/05/24 09:54:51;;;;;;;17.10;4.03;;;;;;;;;;5059662;28;20519;-78
2023/05/24 09:57:17;;;;;;;14.10;3.78;;;;;;;;;;5060630;28;20041;-78
2023/05/24 09:59:44;;;;;;;10.43;3.00;;;;;;;;;;5063817;28;20052;-77
2023/05/24 10:02:11;;;;;;;16.73;3.78;;;;;;;;;;5081400;27;21605;-78
2023/05/24 10:04:38;;;;;;;12.13;3.17;;;;;;;;;;5067923;28;20045;-77
2023/05/24 10:07:04;;;;;;;14.68;3.80;;;;;;;;;;5083906;27;20071;-78
2023/05/24 10:09:32;;;;;;;13.77;3.38;;;;;;;;;;5045275;28;20052;-78
2023/05/24 10:12:02;;;;;;;12.65;3.08;;;;;;;;;;5062863;28;20162;-78
2023/05/24 10:14:30;;;;;;;10.68;2.63;;;;;;;;;;5055299;28;20036;-78
2023/05/24 10:16:57;;;;;;;13.60;3.20;;;;;;;;;;5051167;28;20103;-79
2023/05/24 10:19:24;;;;;;;12.43;2.88;;;;;;;;;;5055433;28;20709;-78
2023/05/24 10:21:50;;;;;;;12.73;3.35;;;;;;;;;;5037017;28;21148;-78
2023/05/24 10:24:18;;;;;;;9.43;2.50;;;;;;;;;;5052341;28;20098;-78
2023/05/24 10:26:47;;;;;;;13.95;2.90;;;;;;;;;;5055500;28;20101;-77
2023/05/24 10:29:21;;;;;;;11.38;3.03;;;;;;;;;;5058676;28;20064;-78
2023/05/24 10:31:48;;;;;;;12.18;3.28;;;;;;;;;;5057388;28;20071;-80
2023/05/24 10:34:14;;;;;;;8.70;2.55;;;;;;;;;;5059173;28;20040;-79
2023/05/24 10:36:42;;;;;;;11.55;2.50;;;;;;;;;;5057728;28;20576;-78
2023/05/24 10:39:12;;;;;;;11.23;2.47;;;;;;;;;;5056807;28;20048;-80
2023/05/24 10:41:39;;;;;;;9.10;2.75;;;;;;;;;;5058414;28;20135;-79
2023/05/24 10:44:10;;;;;;;10.80;2.60;;;;;;;;;;5058300;28;20051;-78
2023/05/24 10:46:56;;;;;;;8.35;2.83;;;;;;;;;;5055092;28;21007;-78
2023/05/24 10:49:23;;;;;;;11.88;2.67;;;;;;;;;;5057902;28;20040;-79
2023/05/24 10:51:49;;;;;;;9.45;2.88;;;;;;;;;;5052880;28;20039;-79
2023/05/24 10:54:19;;;;;;;8.18;2.22;;;;;;;;;;5055005;28;20058;-78
2023/05/24 10:56:50;;;;;;;8.93;2.50;;;;;;;;;;5056758;28;20036;-78
2023/05/24 10:59:23;;;;;;;10.07;2.85;;;;;;;;;;5063562;28;20075;-78
2023/05/24 11:01:59;;;;;;;12.52;3.20;;;;;;;;;;5060537;28;20048;-78
2023/05/24 11:04:28;;;;;;;9.75;3.22;;;;;;;;;;5058279;28;20124;-78
2023/05/24 11:07:00;;;;;;;12.68;3.70;;;;;;;;;;5056810;28;20055;-79
2023/05/24 11:09:27;;;;;;;10.77;2.70;;;;;;;;;;5067115;28;20045;-78
2023/05/24 11:11:59;;;;;;;17.73;3.40;;;;;;;;;;5057090;28;20063;-78
2023/05/24 11:14:29;;;;;;;16.52;3.55;;;;;;;;;;5061809;28;20112;-78
2023/05/24 11:16:56;;;;;;;9.65;2.78;;;;;;;;;;5061852;28;21420;-78
2023/05/24 11:19:23;;;;;;;11.18;2.90;;;;;;;;;;5056875;28;20048;-78
2023/05/24 11:21:53;;;;;;;11.68;3.15;;;;;;;;;;5053039;28;20616;-79
2023/05/24 11:24:20;;;;;;;17.30;3.63;;;;;;;;;;5050915;28;20127;-78
2023/05/24 11:26:46;;;;;;;11.18;2.83;;;;;;;;;;5050157;28;20051;-79
2023/05/24 11:29:16;;;;;;;13.40;3.28;;;;;;;;;;5056457;28;20059;-79
2023/05/24 11:31:52;;;;;;;14.52;3.42;;;;;;;;;;5068861;28;20078;-79
2023/05/24 11:34:19;;;;;;;17.83;3.60;;;;;;;;;;5052683;28;20043;-78
2023/05/24 11:36:46;;;;;;;13.45;3.50;;;;;;;;;;5069291;28;20541;-79
2023/05/24 11:39:13;;;;;;;12.48;2.47;;;;;;;;;;5051135;28;20052;-79
2023/05/24 11:41:39;;;;;;;11.90;3.33;;;;;;;;;;5034659;28;20447;-79
2023/05/24 11:44:07;;;;;;;13.50;3.65;;;;;;;;;;5049001;28;20075;-79
2023/05/24 11:46:33;;;;;;;16.27;3.80;;;;;;;;;;5052852;28;20135;-79
2023/05/24 11:48:59;;;;;;;13.27;3.20;;;;;;;;;;5052973;28;20059;-78
2023/05/24 11:51:30;;;;;;;16.85;3.80;;;;;;;;;;5052479;28;20089;-78
2023/05/24 11:54:00;;;;;;;14.60;4.18;;;;;;;;;;5053195;28;20672;-79
2023/05/24 11:56:27;;;;;;;12.18;3.13;;;;;;;;;;5058340;28;20565;-78
2023/05/24 11:58:56;;;;;;;13.98;3.47;;;;;;;;;;5039040;28;20078;-79
2023/05/24 12:01:23;;;;;;;19.38;3.80;;;;;;;;;;5057013;28;20403;-79
2023/05/24 12:03:52;;;;;;;14.48;3.60;;;;;;;;;;5059114;28;20044;-77
2023/05/24 12:06:18;;;;;;;14.13;3.28;;;;;;;;;;5059635;28;20036;-78
2023/05/24 12:08:44;;;;;;;14.10;3.15;;;;;;;;;;5059548;28;20472;-77
2023/05/24 12:11:11;;;;;;;10.98;3.00;;;;;;;;;;5056674;28;20129;-77
2023/05/24 12:13:39;;;;;;;16.48;3.65;;;;;;;;;;5059216;28;20052;-78
2023/05/24 12:16:06;;;;;;;12.45;3.33;;;;;;;;;;5057770;28;20556;-78
2023/05/24 12:18:32;;;;;;;8.60;3.05;;;;;;;;;;5041297;28;20482;-75
2023/05/24 12:20:58;;;;;;;16.95;3.50;;;;;;;;;;5058231;28;20048;-75
2023/05/24 12:23:30;;;;;;;11.80;3.10;;;;;;;;;;5058171;28;20530;-75
2023/05/24 12:26:00;;;;;;;19.15;3.85;;;;;;;;;;5056916;28;20048;-75
2023/05/24 12:28:26;;;;;;;17.38;4.32;;;;;;;;;;5059034;28;20483;-75
2023/05/24 12:30:52;;;;;;;13.13;3.40;;;;;;;;;;5061441;28;20064;-75
2023/05/24 12:33:19;;;;;;;14.95;3.83;;;;;;;;;;5059613;28;20060;-76
2023/05/24 12:35:46;;;;;;;16.58;4.05;;;;;;;;;;5061097;28;20081;-75
2023/05/24 12:38:12;;;;;;;13.00;3.65;;;;;;;;;;5057446;28;20060;-76
2023/05/24 12:40:41;;;;;;;11.63;3.67;;;;;;;;;;5059037;28;20175;-76
2023/05/24 12:43:09;;;;;;;14.52;4.15;;;;;;;;;;5060234;28;20059;-76
2023/05/24 12:45:36;;;;;;;12.52;3.55;;;;;;;;;;5041901;28;20484;-76
2023/05/24 12:48:03;;;;;;;19.25;3.88;;;;;;;;;;5040740;28;20045;-76
2023/05/24 12:50:30;;;;;;;17.48;4.22;;;;;;;;;;5057064;28;20052;-76
2023/05/24 12:52:56;;;;;;;14.45;4.22;;;;;;;;;;5058168;28;20032;-76
2023/05/24 12:55:24;;;;;;;12.50;3.75;;;;;;;;;;5057462;28;20912;-77
2023/05/24 12:57:53;;;;;;;14.43;3.67;;;;;;;;;;5057836;28;20032;-75
2023/05/24 13:00:20;;;;;;;13.77;3.60;;;;;;;;;;5040216;28;20044;-76
2023/05/24 13:02:46;;;;;;;14.38;3.47;;;;;;;;;;5049462;28;20408;-75
2023/05/24 13:05:12;;;;;;;12.13;3.08;;;;;;;;;;5054713;28;20510;-76
2023/05/24 13:07:38;;;;;;;13.65;3.13;;;;;;;;;;5057980;28;20040;-75
2023/05/24 13:10:08;;;;;;;13.52;3.20;;;;;;;;;;5073671;28;20047;-76
2023/05/24 13:12:34;;;;;;;16.00;3.95;;;;;;;;;;5056019;28;20052;-76
2023/05/24 13:15:00;;;;;;;10.95;3.95;;;;;;;;;;5057688;28;20488;-76
2023/05/24 13:17:27;;;;;;;14.93;3.30;;;;;;;;;;5057748;28;20040;-76
2023/05/24 13:19:53;;;;;;;19.25;4.32;;;;;;;;;;5057070;28;20036;-76
2023/05/24 13:22:19;;;;;;;10.43;3.20;;;;;;;;;;5041329;28;20036;-76
2023/05/24 13:24:45;;;;;;;16.05;3.38;;;;;;;;;;5059803;28;20051;-76
2023/05/24 13:27:12;;;;;;;14.93;3.35;;;;;;;;;;5039248;28;20067;-76
2023/05/24 13:29:39;;;;;;;14.18;3.78;;;;;;;;;;5057601;28;20127;-76
2023/05/24 13:32:05;;;;;;;11.50;3.20;;;;;;;;;;5058921;28;20096;-77
2023/05/24 13:34:32;;;;;;;11.35;2.70;;;;;;;;;;5060268;28;20069;-76
2023/05/24 13:37:01;;;;;;;11.68;3.47;;;;;;;;;;5059625;28;20044;-75
2023/05/24 13:39:27;;;;;;;12.88;3.33;;;;;;;;;;5062628;28;20686;-75
2023/05/24 13:41:53;;;;;;;12.73;3.72;;;;;;;;;;5071242;28;20047;-76
2023/05/24 13:44:20;;;;;;;10.35;2.83;;;;;;;;;;5078667;28;20100;-75
2023/05/24 13:46:46;;;;;;;9.93;3.08;;;;;;;;;;5073607;28;20044;-75
2023/05/24 13:49:12;;;;;;;9.05;2.65;;;;;;;;;;5055419;28;20646;-77
2023/05/24 13:51:39;;;;;;;17.65;3.70;;;;;;;;;;5053890;28;20127;-75
2023/05/24 13:54:06;;;;;;;10.38;3.25;;;;;;;;;;5057561;28;20571;-76
2023/05/24 13:56:33;;;;;;;11.20;2.75;;;;;;;;;;5042777;28;20427;-76
2023/05/24 13:59:03;;;;;;;14.82;2.83;;;;;;;;;;5054385;28;20040;-76
2023/05/24 14:01:29;;;;;;;10.27;2.83;;;;;;;;;;5059729;28;20079;-77
2023/05/24 14:03:55;;;;;;;11.15;3.22;;;;;;;;;;5040868;28;21529;-76
2023/05/24 14:06:21;;;;;;;13.75;3.10;;;;;;;;;;5056246;28;20048;-75
2023/05/24 14:08:48;;;;;;;10.38;2.90;;;;;;;;;;5054639;28;20099;-74
2023/05/24 14:11:14;;;;;;;10.13;3.55;;;;;;;;;;5056476;28;20048;-75
2023/05/24 14:13:41;;;;;;;14.45;2.75;;;;;;;;;;5055404;28;20036;-76
2023/05/24 14:16:08;;;;;;;11.40;2.80;;;;;;;;;;5042649;28;20044;-75
2023/05/24 14:18:34;;;;;;;11.68;2.65;;;;;;;;;;5052944;28;20089;-76
2023/05/24 14:21:00;;;;;;;11.10;3.22;;;;;;;;;;5054309;28;20488;-75
2023/05/24 14:23:29;;;;;;;13.57;3.72;;;;;;;;;;5054507;28;20510;-76
2023/05/24 14:25:55;;;;;;;15.43;3.50;;;;;;;;;;5056051;28;20044;-75
2023/05/24 14:28:21;;;;;;;10.95;3.33;;;;;;;;;;5058807;28;20181;-75
2023/05/24 14:30:47;;;;;;;15.32;3.38;;;;;;;;;;5074505;28;20044;-75